createdAt,value
2019-04-23T00:02:12.950Z,36.57
2019-04-23T00:04:28.187Z,36.47
2019-04-23T00:07:15.038Z,36.1
2019-04-23T00:10:03.255Z,35.9
2019-04-23T00:12:37.253Z,35.81
2019-04-23T00:15:51.556Z,35.61
2019-04-23T00:21:05.623Z,35.33
2019-04-23T00:23:44.283Z,35.24
2019-04-23T00:26:50.097Z,35.33
2019-04-23T00:29:55.680Z,35.52
2019-04-23T00:32:45.958Z,35.42
2019-04-23T00:35:25.323Z,35.61
2019-04-23T00:41:02.597Z,36.19
2019-04-23T00:43:48.365Z,36.19
2019-04-23T00:46:39.844Z,36.19
2019-04-23T00:49:48.776Z,36.1
2019-04-23T00:52:20.323Z,36
2019-04-23T00:54:56.862Z,35.9
2019-04-23T00:57:40.389Z,35.81
2019-04-23T01:02:45.521Z,35.9
2019-04-23T01:07:31.415Z,35.81
2019-04-23T01:10:13.775Z,35.9
2019-04-23T01:15:45.756Z,36.17
2019-04-23T01:21:05.471Z,36.55
2019-04-23T01:22:04.667Z,36.65
2019-04-23T01:23:05.323Z,36.65
2019-04-23T01:24:15.783Z,36.65
2019-04-23T01:25:24.335Z,36.75
2019-04-23T01:27:32.094Z,37.04
2019-04-23T01:30:40.328Z,37.61
2019-04-23T01:33:26.795Z,38.18
2019-04-23T01:38:27.748Z,39.4
2019-04-23T01:41:07.559Z,39.6
2019-04-23T01:44:03.395Z,39.03
2019-04-23T01:47:00.473Z,38.07
2019-04-23T01:52:51.812Z,38.07
2019-04-23T02:01:15.848Z,38.74
2019-04-23T02:04:09.487Z,38.54
2019-04-23T02:06:57.536Z,38.45
2019-04-23T02:10:13.702Z,38.54
2019-04-23T02:16:02.595Z,39.4
2019-04-23T02:19:09.599Z,39.4
2019-04-23T02:21:45.045Z,39.31
2019-04-23T02:25:13.043Z,39.22
2019-04-23T02:28:15.384Z,39.4
2019-04-23T02:32:37.132Z,39.4
2019-04-23T02:36:44.843Z,39.39
2019-04-23T02:43:43.848Z,39.96
2019-04-23T02:51:58.327Z,39.96
2019-04-23T02:55:24.667Z,40.25
2019-04-23T03:02:23.697Z,40.72
2019-04-23T03:05:48.971Z,40.72
2019-04-23T03:09:12.236Z,40.72
2019-04-23T03:19:23.437Z,41.97
2019-04-23T03:27:21.073Z,43.48
2019-04-23T03:33:52.152Z,44.15
2019-04-23T03:38:05.624Z,43.86
2019-04-23T03:41:53.311Z,44.72
2019-04-23T03:49:19.192Z,47.27
2019-04-23T03:56:02.024Z,48.49
2019-04-23T04:02:39.631Z,48.88
2019-04-23T04:07:18.236Z,48.97
2019-04-23T04:22:08.421Z,50.49
2019-04-23T04:26:20.399Z,51.07
2019-04-23T04:33:58.258Z,52.76
2019-04-23T04:57:35.732Z,54.77
2019-04-23T05:00:52.343Z,55.34
2019-04-23T05:04:19.554Z,55.98
2019-04-23T05:07:08.422Z,56.26
2019-04-23T05:10:51.095Z,57.03
2019-04-23T05:17:58.804Z,57.41
2019-04-23T05:21:38.569Z,57.12
2019-04-23T05:24:39.477Z,57.41
2019-04-23T05:27:17.309Z,57.41
2019-04-23T05:29:52.941Z,57.34
2019-04-23T05:32:40.933Z,58.01
2019-04-23T05:39:28.893Z,61.13
2019-04-23T05:42:25.876Z,61.19
2019-04-23T05:45:15.352Z,61.1
2019-04-23T05:48:23.196Z,60.91
2019-04-23T05:51:50.218Z,60.75
2019-04-23T05:57:19.675Z,59.41
2019-04-23T06:00:23.441Z,58.94
2019-04-23T06:03:56.122Z,58.36
2019-04-23T06:07:08.187Z,58.77
2019-04-23T06:09:58.016Z,59.63
2019-04-23T06:13:04.333Z,59.82
2019-04-23T06:16:13.539Z,60.08
2019-04-23T06:19:32.538Z,58.97
2019-04-23T06:29:04.776Z,57.85
2019-04-23T06:35:09.610Z,58.42
2019-04-23T06:40:53.751Z,57.4
2019-04-23T06:47:06.513Z,58.1
2019-04-23T06:50:11.510Z,59.78
2019-04-23T06:52:49.604Z,60.07
2019-04-23T06:55:55.232Z,59.59
2019-04-23T06:58:58.610Z,58.64
2019-04-23T07:01:44.470Z,58
2019-04-23T07:04:40.810Z,57.24
2019-04-23T07:10:57.318Z,56.02
2019-04-23T07:13:46.337Z,55.07
2019-04-23T07:16:46.131Z,56.4
2019-04-23T07:19:30.083Z,56.21
2019-04-23T07:22:12.837Z,55.19
2019-04-23T07:25:17.149Z,55.29
2019-04-23T07:28:12.762Z,54.8
2019-04-23T07:34:17.908Z,54.36
2019-04-23T07:37:12.377Z,54.45
2019-04-23T07:40:46.433Z,54.16
2019-04-23T07:44:28.013Z,52.85
2019-04-23T07:48:01.301Z,53.04
2019-04-23T07:51:05.599Z,52.11
2019-04-23T07:54:43.907Z,50.32
2019-04-23T07:57:58.104Z,48.52
2019-04-23T08:01:38.972Z,46.79
2019-04-23T08:04:53.968Z,46.62
2019-04-23T08:08:00.060Z,45.37
2019-04-23T08:11:00.293Z,43.1
2019-04-23T08:14:40.233Z,41.94
2019-04-23T08:17:58.183Z,41.85
2019-04-23T08:20:48.894Z,41.94
2019-04-23T08:24:00.083Z,41.17
2019-04-23T08:27:22.272Z,40.79
2019-04-23T08:30:32.096Z,40.41
2019-04-23T08:33:49.155Z,38.6
2019-04-23T08:36:19.932Z,37.84
2019-04-23T08:39:38.173Z,35.93
2019-04-23T08:43:17.029Z,36.22
2019-04-23T08:46:21.009Z,35.28
2019-04-23T08:49:35.603Z,35.1
2019-04-23T08:52:34.497Z,34.62
2019-04-23T08:56:13.866Z,34.35
2019-04-23T08:59:14.742Z,33.67
2019-04-23T09:06:15.611Z,34.56
2019-04-23T09:09:43.536Z,33.4
2019-04-23T09:12:48.983Z,32.17
2019-04-23T09:18:52.464Z,32.36
2019-04-23T09:21:39.733Z,32.28
2019-04-23T09:24:55.286Z,32.67
2019-04-23T09:27:59.184Z,32.57
2019-04-23T09:31:10.101Z,32.38
2019-04-23T09:35:05.761Z,32.01
2019-04-23T09:38:10.961Z,32.18
2019-04-23T09:41:21.677Z,31.51
2019-04-23T09:44:14.240Z,30.74
2019-04-23T09:47:26.056Z,28.15
2019-04-23T09:50:48.731Z,25.16
2019-04-23T09:54:02.699Z,25.08
2019-04-23T09:57:03.632Z,23.92
2019-04-23T10:00:24.835Z,24.61
2019-04-23T10:02:46.880Z,25.19
2019-04-23T10:04:30.859Z,24.61
2019-04-23T10:06:03.876Z,24.41
2019-04-23T10:07:12.439Z,24.32
2019-04-23T10:08:27.805Z,24.61
2019-04-23T10:09:12.705Z,24.8
2019-04-23T10:10:08.105Z,24.9
2019-04-23T10:11:09.286Z,24.99
2019-04-23T10:12:11.446Z,25.19
2019-04-23T10:13:08.568Z,25.38
2019-04-23T10:14:10.366Z,25.28
2019-04-23T10:15:24.884Z,24.8
2019-04-23T10:16:12.149Z,24.71
2019-04-23T10:17:10.251Z,24.43
2019-04-23T10:18:07.917Z,24.22
2019-04-23T10:19:09.865Z,24.8
2019-04-23T10:20:10.811Z,25.48
2019-04-23T10:21:08.134Z,26.04
2019-04-23T10:22:09.069Z,26.04
2019-04-23T10:23:10.243Z,25.66
2019-04-23T10:24:09.431Z,25.56
2019-04-23T10:25:09.142Z,25.27
2019-04-23T10:26:09.953Z,25.27
2019-04-23T10:27:08.527Z,25.37
2019-04-23T10:28:14.768Z,25.66
2019-04-23T10:29:09.712Z,26.04
2019-04-23T10:30:09.964Z,26.23
2019-04-23T10:31:09.479Z,26.25
2019-04-23T10:32:09.333Z,25.67
2019-04-23T10:33:09.559Z,25.95
2019-04-23T10:34:10.326Z,26.53
2019-04-23T10:35:34.941Z,26.91
2019-04-23T10:36:23.291Z,27.11
2019-04-23T10:37:18.660Z,27.11
2019-04-23T10:38:20.655Z,27.2
2019-04-23T10:39:28.020Z,27.49
2019-04-23T10:40:27.962Z,27.68
2019-04-23T10:41:15.947Z,27.89
2019-04-23T10:42:15.982Z,27.98
2019-04-23T10:43:15.413Z,28.08
2019-04-23T10:44:15.381Z,27.8
2019-04-23T10:45:44.455Z,27.89
2019-04-23T10:48:32.484Z,28.26
2019-04-23T10:52:18.892Z,28.07
2019-04-23T10:55:11.258Z,28.92
2019-04-23T10:58:29.891Z,28.25
2019-04-23T11:01:27.758Z,27.2
2019-04-23T11:08:01.531Z,27.29
2019-04-23T11:11:27.131Z,27.01
2019-04-23T11:14:41.689Z,26.73
2019-04-23T11:17:56.431Z,27.22
2019-04-23T11:20:55.685Z,27.7
2019-04-23T11:24:20.345Z,27.8
2019-04-23T11:27:34.861Z,27.7
2019-04-23T11:34:47.326Z,27.4
2019-04-23T11:37:47.568Z,27.51
2019-04-23T11:41:41.325Z,27.13
2019-04-23T11:53:47.531Z,26.86
2019-04-23T12:00:03.847Z,25.81
2019-04-23T12:03:36.513Z,24.93
2019-04-23T12:07:17.123Z,24.93
2019-04-23T12:13:59.418Z,25.81
2019-04-23T12:17:40.531Z,28.03
2019-04-23T12:21:03.570Z,27.53
2019-04-23T12:27:46.265Z,26.08
2019-04-23T12:31:24.499Z,26.37
2019-04-23T12:34:44.094Z,25.81
2019-04-23T12:38:05.887Z,26.87
2019-04-23T12:41:12.603Z,25.92
2019-04-23T12:44:38.367Z,25.51
2019-04-23T12:47:49.031Z,25.23
2019-04-23T12:51:05.417Z,25.43
2019-04-23T12:54:40.865Z,24.66
2019-04-23T12:58:09.253Z,23.99
2019-04-23T13:01:21.817Z,23.22
2019-04-23T13:04:41.109Z,22.44
2019-04-23T13:07:43.060Z,23.22
2019-04-23T13:12:08.390Z,22.36
2019-04-23T13:15:39.685Z,23.41
2019-04-23T13:19:11.399Z,23.8
2019-04-23T13:22:54.693Z,23.7
2019-04-23T13:26:15.420Z,21.95
2019-04-23T13:29:49.577Z,21.08
2019-04-23T13:32:52.017Z,21.17
2019-04-23T13:36:35.970Z,21.37
2019-04-23T13:40:22.571Z,21.09
2019-04-23T13:43:58.675Z,19.84
2019-04-23T13:47:27.701Z,19.17
2019-04-23T13:50:36.671Z,19.45
2019-04-23T13:54:06.741Z,19.65
2019-04-23T13:58:06.268Z,19.45
2019-04-23T14:05:12.127Z,18.11
2019-04-23T14:11:38.263Z,17.26
2019-04-23T14:15:07.993Z,17.18
2019-04-23T14:18:55.815Z,15.74
2019-04-23T14:21:50.880Z,14.79
2019-04-23T14:25:50.024Z,13.83
2019-04-23T14:28:58.052Z,12.57
2019-04-23T14:32:15.439Z,13.53
2019-04-23T14:35:49.501Z,13.92
2019-04-23T14:39:09.613Z,13.82
2019-04-23T14:42:24.136Z,12.28
2019-04-23T14:49:10.679Z,9.79
2019-04-23T14:53:11.909Z,9.8
2019-04-23T14:56:25.785Z,10.75
2019-04-23T14:59:27.746Z,12.68
2019-04-23T15:03:06.957Z,12.85
2019-04-23T15:06:59.972Z,14.59
2019-04-23T15:10:24.314Z,14.01
2019-04-23T15:13:49.247Z,13.82
2019-04-23T15:16:59.380Z,12.46
2019-04-23T15:20:07.940Z,11.99
2019-04-23T15:24:10.699Z,11.23
2019-04-23T15:28:07.211Z,10.94
2019-04-23T15:29:18.421Z,10.75
2019-04-23T15:36:01.629Z,10.28
2019-04-23T15:38:49.139Z,11.04
2019-04-23T15:41:55.633Z,10.94
2019-04-23T15:48:40.120Z,10.25
2019-04-23T15:52:02.344Z,9.59
2019-04-23T15:55:20.628Z,8.44
2019-04-23T15:59:26.919Z,8.34
2019-04-23T16:01:43.914Z,8.06
2019-04-23T16:02:21.708Z,8.06
2019-04-23T16:03:24.932Z,7.67
2019-04-23T16:04:24.105Z,7.96
2019-04-23T16:05:24.488Z,7.67
2019-04-23T16:06:28.938Z,7.76
2019-04-23T16:08:01.467Z,8.06
2019-04-23T16:11:32.413Z,8.64
2019-04-23T16:15:00.921Z,9.32
2019-04-23T16:18:20.099Z,8.92
2019-04-23T16:24:54.939Z,8.25
2019-04-23T16:28:17.121Z,8.15
2019-04-23T16:31:44.372Z,8.16
2019-04-23T16:34:47.209Z,7.87
2019-04-23T16:38:22.937Z,7.86
2019-04-23T16:41:38.783Z,8.54
2019-04-23T16:47:55.643Z,9.31
2019-04-23T16:54:00.958Z,10.17
2019-04-23T16:57:49.546Z,9.59
2019-04-23T17:01:20.404Z,9.89
2019-04-23T17:07:23.818Z,11.74
2019-04-23T17:10:59.586Z,14.73
2019-04-23T17:14:07.968Z,16.91
2019-04-23T17:17:29.705Z,18.81
2019-04-23T17:27:47.347Z,20.7
2019-04-23T17:31:02.899Z,21.09
2019-04-23T17:34:34.219Z,21.75
2019-04-23T17:41:58.358Z,23.08
2019-04-23T17:45:31.946Z,23.57
2019-04-23T17:48:39.969Z,24.43
2019-04-23T17:51:29.496Z,24.61
2019-04-23T17:58:23.168Z,25.85
2019-04-23T18:01:59.039Z,26.04
2019-04-23T18:05:23.368Z,26.23
2019-04-23T18:08:47.983Z,26.61
2019-04-23T18:13:13.041Z,27.19
2019-04-23T18:16:27.483Z,27.75
2019-04-23T18:19:36.205Z,29.2
2019-04-23T18:25:36.419Z,31.48
2019-04-23T18:28:44.142Z,32.54
2019-04-23T18:32:32.545Z,33.67
2019-04-23T18:36:12.817Z,35.02
2019-04-23T18:42:25.496Z,35.49
2019-04-23T18:49:27.865Z,36.43
2019-04-23T18:52:55.386Z,37.08
2019-04-23T18:55:52.443Z,37.76
2019-04-23T18:59:18.033Z,38.34
2019-04-23T19:06:06.574Z,39.85
2019-04-23T19:09:31.220Z,39.93
2019-04-23T19:13:08.934Z,39.93
2019-04-23T19:16:23.749Z,40.22
2019-04-23T19:20:11.487Z,40.31
2019-04-23T19:23:50.516Z,40.67
2019-04-23T19:27:10.247Z,40.29
2019-04-23T19:30:11.398Z,40
2019-04-23T19:33:52.889Z,39.33
2019-04-23T19:38:15.027Z,37.89
2019-04-23T19:41:16.050Z,37.91
2019-04-23T19:47:54.084Z,37.91
2019-04-23T20:00:25.991Z,37.22
2019-04-23T20:09:48.507Z,37.24
2019-04-23T20:12:57.249Z,37.43
2019-04-23T20:16:27.452Z,37.7
2019-04-23T20:19:29.761Z,37.99
2019-04-23T20:22:51.126Z,37.8
2019-04-23T20:26:59.033Z,36.65
2019-04-23T20:39:31.825Z,36.55
2019-04-23T20:43:13.083Z,36.55
2019-04-23T20:46:31.642Z,36.46
2019-04-23T20:52:40.325Z,35.3
2019-04-23T20:56:07.013Z,35.02
2019-04-23T20:59:40.196Z,34.92
2019-04-23T21:03:45.885Z,35.11
2019-04-23T21:07:25.565Z,35.21
2019-04-23T21:11:39.906Z,35.11
2019-04-23T21:24:23.916Z,36.16
2019-04-23T21:28:08.397Z,36.46
2019-04-23T21:31:30.011Z,36.82
2019-04-23T21:35:02.509Z,37.49
2019-04-23T21:42:19.464Z,38.54
2019-04-23T21:45:12.433Z,39.01
2019-04-23T21:49:01.553Z,39.48
2019-04-23T21:52:15.577Z,39.97
2019-04-23T21:55:18.408Z,39.97
2019-04-23T22:01:43.374Z,40.25
2019-04-23T22:08:05.278Z,40.33
2019-04-23T22:15:12.480Z,41.09
2019-04-23T22:18:44.007Z,40.9
2019-04-23T22:22:15.396Z,40.52
2019-04-23T22:25:29.260Z,40.52
2019-04-23T22:28:48.700Z,40.9
2019-04-23T22:32:02.179Z,41.19
2019-04-23T22:36:38.681Z,41.28
2019-04-23T22:39:51.924Z,41
2019-04-23T22:43:42.786Z,40.81
2019-04-23T22:47:47.477Z,40.9
2019-04-23T22:50:46.914Z,40.9
2019-04-23T22:54:19.833Z,41.19
2019-04-23T22:57:55.511Z,41.28
2019-04-23T23:01:12.360Z,41.94
2019-04-23T23:04:19.733Z,42.32
2019-04-23T23:08:00.706Z,42.51
2019-04-23T23:15:39.834Z,42.8
2019-04-23T23:18:56.904Z,42.9
2019-04-23T23:25:04.314Z,42.9
2019-04-23T23:28:26.742Z,43.18
2019-04-23T23:31:41.984Z,43.47
2019-04-23T23:35:00.602Z,43.47
2019-04-23T23:38:07.072Z,42.9
2019-04-23T23:41:25.775Z,42.6
2019-04-23T23:44:40.343Z,42.99
2019-04-23T23:47:51.364Z,43.18
2019-04-23T23:51:15.407Z,43.56
